sensor_id;sensor_type;location;lat;lon;timestamp;temperature;humidity
14079;DHT22;7115;50.150;8.568;2022-09-17T00:01:01;12.70;99.90
14079;DHT22;7115;50.150;8.568;2022-09-17T00:03:28;12.60;99.90
14079;DHT22;7115;50.150;8.568;2022-09-17T00:06:06;12.60;99.90
14079;DHT22;7115;50.150;8.568;2022-09-17T00:08:34;12.60;99.90
14079;DHT22;7115;50.150;8.568;2022-09-17T00:11:14;12.70;99.90
14079;DHT22;7115;50.150;8.568;2022-09-17T00:13:42;12.70;99.90
14079;DHT22;7115;50.150;8.568;2022-09-17T00:16:10;12.80;99.90
14079;DHT22;7115;50.150;8.568;2022-09-17T00:18:37;12.80;99.90
14079;DHT22;7115;50.150;8.568;2022-09-17T00:21:15;12.80;99.90
14079;DHT22;7115;50.150;8.568;2022-09-17T00:23:43;12.80;99.90
14079;DHT22;7115;50.150;8.568;2022-09-17T00:26:09;12.80;99.90
14079;DHT22;7115;50.150;8.568;2022-09-17T00:28:36;12.80;99.90
14079;DHT22;7115;50.150;8.568;2022-09-17T00:31:07;12.80;99.90
14079;DHT22;7115;50.150;8.568;2022-09-17T00:33:35;12.70;99.90
14079;DHT22;7115;50.150;8.568;2022-09-17T00:36:02;12.60;99.90
14079;DHT22;7115;50.150;8.568;2022-09-17T00:38:29;12.50;99.90
14079;DHT22;7115;50.150;8.568;2022-09-17T00:40:56;12.50;99.90
14079;DHT22;7115;50.150;8.568;2022-09-17T00:43:53;12.40;99.90
14079;DHT22;7115;50.150;8.568;2022-09-17T00:46:42;12.40;99.90
14079;DHT22;7115;50.150;8.568;2022-09-17T00:49:13;12.30;99.90
14079;DHT22;7115;50.150;8.568;2022-09-17T00:52:03;12.20;99.90
14079;DHT22;7115;50.150;8.568;2022-09-17T00:54:32;12.10;99.90
14079;DHT22;7115;50.150;8.568;2022-09-17T00:56:58;12.30;99.90
14079;DHT22;7115;50.150;8.568;2022-09-17T00:59:25;12.30;99.90
14079;DHT22;7115;50.150;8.568;2022-09-17T01:01:52;12.20;99.90
14079;DHT22;7115;50.150;8.568;2022-09-17T01:04:25;12.20;99.90
14079;DHT22;7115;50.150;8.568;2022-09-17T01:07:11;12.10;99.90
14079;DHT22;7115;50.150;8.568;2022-09-17T01:13:01;11.90;99.90
14079;DHT22;7115;50.150;8.568;2022-09-17T01:18:20;11.80;99.90
14079;DHT22;7115;50.150;8.568;2022-09-17T01:29:47;11.60;99.90
14079;DHT22;7115;50.150;8.568;2022-09-17T01:32:29;11.60;99.90
14079;DHT22;7115;50.150;8.568;2022-09-17T01:35:09;11.70;99.90
14079;DHT22;7115;50.150;8.568;2022-09-17T01:42:46;11.80;99.90
14079;DHT22;7115;50.150;8.568;2022-09-17T01:45:21;11.90;99.90
14079;DHT22;7115;50.150;8.568;2022-09-17T01:48:13;12.00;99.90
14079;DHT22;7115;50.150;8.568;2022-09-17T01:51:04;12.00;99.90
14079;DHT22;7115;50.150;8.568;2022-09-17T01:56:21;12.10;99.90
14079;DHT22;7115;50.150;8.568;2022-09-17T01:59:06;12.10;99.90
14079;DHT22;7115;50.150;8.568;2022-09-17T02:01:36;12.10;99.90
14079;DHT22;7115;50.150;8.568;2022-09-17T02:04:16;12.20;99.90
14079;DHT22;7115;50.150;8.568;2022-09-17T02:06:54;12.10;99.90
14079;DHT22;7115;50.150;8.568;2022-09-17T02:09:31;12.10;99.90
14079;DHT22;7115;50.150;8.568;2022-09-17T02:12:03;12.20;99.90
14079;DHT22;7115;50.150;8.568;2022-09-17T02:14:37;12.20;99.90
14079;DHT22;7115;50.150;8.568;2022-09-17T02:17:10;12.30;99.90
14079;DHT22;7115;50.150;8.568;2022-09-17T02:19:39;12.30;99.90
14079;DHT22;7115;50.150;8.568;2022-09-17T02:27:20;12.30;99.90
14079;DHT22;7115;50.150;8.568;2022-09-17T02:29:48;12.20;99.90
14079;DHT22;7115;50.150;8.568;2022-09-17T02:32:15;12.10;99.90
14079;DHT22;7115;50.150;8.568;2022-09-17T02:34:42;12.10;99.90
14079;DHT22;7115;50.150;8.568;2022-09-17T02:37:09;12.10;99.90
14079;DHT22;7115;50.150;8.568;2022-09-17T02:39:36;12.20;99.90
14079;DHT22;7115;50.150;8.568;2022-09-17T02:50:25;12.20;99.90
14079;DHT22;7115;50.150;8.568;2022-09-17T03:00:43;12.00;99.90
14079;DHT22;7115;50.150;8.568;2022-09-17T03:03:24;12.00;99.90
14079;DHT22;7115;50.150;8.568;2022-09-17T03:05:54;12.00;99.90
14079;DHT22;7115;50.150;8.568;2022-09-17T03:08:34;12.10;99.90
14079;DHT22;7115;50.150;8.568;2022-09-17T03:11:02;12.10;99.90
14079;DHT22;7115;50.150;8.568;2022-09-17T03:13:31;12.10;99.90
14079;DHT22;7115;50.150;8.568;2022-09-17T03:15:58;12.10;99.90
14079;DHT22;7115;50.150;8.568;2022-09-17T03:18:26;12.10;99.90
14079;DHT22;7115;50.150;8.568;2022-09-17T03:20:53;12.10;99.90
14079;DHT22;7115;50.150;8.568;2022-09-17T03:23:19;12.10;99.90
14079;DHT22;7115;50.150;8.568;2022-09-17T03:25:46;12.10;99.90
14079;DHT22;7115;50.150;8.568;2022-09-17T03:28:15;12.10;99.90
14079;DHT22;7115;50.150;8.568;2022-09-17T03:30:45;12.10;99.90
14079;DHT22;7115;50.150;8.568;2022-09-17T03:33:12;12.00;99.90
14079;DHT22;7115;50.150;8.568;2022-09-17T03:35:43;12.10;99.90
14079;DHT22;7115;50.150;8.568;2022-09-17T03:38:10;12.10;99.90
14079;DHT22;7115;50.150;8.568;2022-09-17T03:40:37;12.00;99.90
14079;DHT22;7115;50.150;8.568;2022-09-17T03:43:05;12.10;99.90
14079;DHT22;7115;50.150;8.568;2022-09-17T03:45:31;12.10;99.90
14079;DHT22;7115;50.150;8.568;2022-09-17T03:47:58;12.10;99.90
14079;DHT22;7115;50.150;8.568;2022-09-17T03:50:25;12.10;99.90
14079;DHT22;7115;50.150;8.568;2022-09-17T03:52:52;12.10;99.90
14079;DHT22;7115;50.150;8.568;2022-09-17T03:55:19;12.20;99.90
14079;DHT22;7115;50.150;8.568;2022-09-17T03:57:46;12.20;99.90
14079;DHT22;7115;50.150;8.568;2022-09-17T04:00:13;12.20;99.90
14079;DHT22;7115;50.150;8.568;2022-09-17T04:02:42;12.20;99.90
14079;DHT22;7115;50.150;8.568;2022-09-17T04:05:09;12.10;99.90
14079;DHT22;7115;50.150;8.568;2022-09-17T04:07:38;12.00;99.90
14079;DHT22;7115;50.150;8.568;2022-09-17T04:10:05;12.00;99.90
14079;DHT22;7115;50.150;8.568;2022-09-17T04:12:31;12.00;99.90
14079;DHT22;7115;50.150;8.568;2022-09-17T04:14:58;11.90;99.90
14079;DHT22;7115;50.150;8.568;2022-09-17T04:17:25;12.00;99.90
14079;DHT22;7115;50.150;8.568;2022-09-17T04:19:52;11.90;99.90
14079;DHT22;7115;50.150;8.568;2022-09-17T04:22:19;11.90;99.90
14079;DHT22;7115;50.150;8.568;2022-09-17T04:24:46;11.80;99.90
14079;DHT22;7115;50.150;8.568;2022-09-17T04:27:13;11.80;99.90
14079;DHT22;7115;50.150;8.568;2022-09-17T04:29:39;11.80;99.90
14079;DHT22;7115;50.150;8.568;2022-09-17T04:32:06;11.80;99.90
14079;DHT22;7115;50.150;8.568;2022-09-17T04:34:33;11.80;99.90
14079;DHT22;7115;50.150;8.568;2022-09-17T04:37:00;11.90;99.90
14079;DHT22;7115;50.150;8.568;2022-09-17T04:39:26;12.00;99.90
14079;DHT22;7115;50.150;8.568;2022-09-17T04:41:54;12.00;99.90
14079;DHT22;7115;50.150;8.568;2022-09-17T04:44:20;12.10;99.90
14079;DHT22;7115;50.150;8.568;2022-09-17T04:46:47;12.10;99.90
14079;DHT22;7115;50.150;8.568;2022-09-17T04:49:14;12.10;99.90
14079;DHT22;7115;50.150;8.568;2022-09-17T04:51:40;12.10;99.90
14079;DHT22;7115;50.150;8.568;2022-09-17T04:54:07;12.10;99.90
14079;DHT22;7115;50.150;8.568;2022-09-17T04:56:34;12.20;99.90
14079;DHT22;7115;50.150;8.568;2022-09-17T04:59:00;12.20;99.90
14079;DHT22;7115;50.150;8.568;2022-09-17T05:01:27;12.20;99.90
14079;DHT22;7115;50.150;8.568;2022-09-17T05:03:54;12.20;99.90
14079;DHT22;7115;50.150;8.568;2022-09-17T05:06:20;12.30;99.90
14079;DHT22;7115;50.150;8.568;2022-09-17T05:08:47;12.30;99.90
14079;DHT22;7115;50.150;8.568;2022-09-17T05:11:14;12.40;99.90
14079;DHT22;7115;50.150;8.568;2022-09-17T05:13:40;12.40;99.90
14079;DHT22;7115;50.150;8.568;2022-09-17T05:16:07;12.40;99.90
14079;DHT22;7115;50.150;8.568;2022-09-17T05:18:34;12.40;99.90
14079;DHT22;7115;50.150;8.568;2022-09-17T05:21:00;12.40;99.90
14079;DHT22;7115;50.150;8.568;2022-09-17T05:23:27;12.40;99.90
14079;DHT22;7115;50.150;8.568;2022-09-17T05:25:58;12.40;99.90
14079;DHT22;7115;50.150;8.568;2022-09-17T05:28:26;12.40;99.90
14079;DHT22;7115;50.150;8.568;2022-09-17T05:30:53;12.40;99.90
14079;DHT22;7115;50.150;8.568;2022-09-17T05:33:20;12.40;99.90
14079;DHT22;7115;50.150;8.568;2022-09-17T05:35:46;12.40;99.90
14079;DHT22;7115;50.150;8.568;2022-09-17T05:38:13;12.40;99.90
14079;DHT22;7115;50.150;8.568;2022-09-17T05:40:40;12.40;99.90
14079;DHT22;7115;50.150;8.568;2022-09-17T05:43:06;12.40;99.90
14079;DHT22;7115;50.150;8.568;2022-09-17T05:45:33;12.40;99.90
14079;DHT22;7115;50.150;8.568;2022-09-17T05:48:01;12.40;99.90
14079;DHT22;7115;50.150;8.568;2022-09-17T05:50:29;12.50;99.90
14079;DHT22;7115;50.150;8.568;2022-09-17T05:52:56;12.50;99.90
14079;DHT22;7115;50.150;8.568;2022-09-17T05:55:28;12.50;99.90
14079;DHT22;7115;50.150;8.568;2022-09-17T05:57:55;12.50;99.90
14079;DHT22;7115;50.150;8.568;2022-09-17T06:00:21;12.60;99.90
14079;DHT22;7115;50.150;8.568;2022-09-17T06:02:55;12.60;99.90
14079;DHT22;7115;50.150;8.568;2022-09-17T06:05:22;12.70;99.90
14079;DHT22;7115;50.150;8.568;2022-09-17T06:07:49;12.80;99.90
14079;DHT22;7115;50.150;8.568;2022-09-17T06:10:16;12.90;99.90
14079;DHT22;7115;50.150;8.568;2022-09-17T06:12:42;13.00;99.90
14079;DHT22;7115;50.150;8.568;2022-09-17T06:15:09;13.00;99.90
14079;DHT22;7115;50.150;8.568;2022-09-17T06:17:40;13.10;99.90
14079;DHT22;7115;50.150;8.568;2022-09-17T06:20:07;13.20;99.90
14079;DHT22;7115;50.150;8.568;2022-09-17T06:22:35;13.20;99.90
14079;DHT22;7115;50.150;8.568;2022-09-17T06:25:01;13.40;99.90
14079;DHT22;7115;50.150;8.568;2022-09-17T06:27:33;13.50;99.90
14079;DHT22;7115;50.150;8.568;2022-09-17T06:30:00;13.70;99.90
14079;DHT22;7115;50.150;8.568;2022-09-17T06:32:28;14.00;99.90
14079;DHT22;7115;50.150;8.568;2022-09-17T06:34:55;14.20;99.90
14079;DHT22;7115;50.150;8.568;2022-09-17T06:37:30;14.50;99.90
14079;DHT22;7115;50.150;8.568;2022-09-17T06:39:57;14.70;99.90
14079;DHT22;7115;50.150;8.568;2022-09-17T06:42:25;14.80;99.90
14079;DHT22;7115;50.150;8.568;2022-09-17T06:44:53;15.20;99.90
14079;DHT22;7115;50.150;8.568;2022-09-17T06:47:23;15.50;99.90
14079;DHT22;7115;50.150;8.568;2022-09-17T06:49:50;16.00;99.90
14079;DHT22;7115;50.150;8.568;2022-09-17T06:52:17;16.60;99.90
14079;DHT22;7115;50.150;8.568;2022-09-17T06:54:44;17.20;99.90
14079;DHT22;7115;50.150;8.568;2022-09-17T06:57:10;17.90;99.90
14079;DHT22;7115;50.150;8.568;2022-09-17T06:59:37;18.50;99.90
14079;DHT22;7115;50.150;8.568;2022-09-17T07:02:04;18.90;99.90
14079;DHT22;7115;50.150;8.568;2022-09-17T07:04:30;19.10;99.90
14079;DHT22;7115;50.150;8.568;2022-09-17T07:06:57;19.40;99.50
14079;DHT22;7115;50.150;8.568;2022-09-17T07:09:24;19.50;98.80
14079;DHT22;7115;50.150;8.568;2022-09-17T07:11:50;19.50;98.40
14079;DHT22;7115;50.150;8.568;2022-09-17T07:14:17;19.30;97.90
14079;DHT22;7115;50.150;8.568;2022-09-17T07:16:44;19.20;97.90
14079;DHT22;7115;50.150;8.568;2022-09-17T07:19:11;19.30;97.80
14079;DHT22;7115;50.150;8.568;2022-09-17T07:21:40;19.60;97.50
14079;DHT22;7115;50.150;8.568;2022-09-17T07:24:07;19.90;97.10
14079;DHT22;7115;50.150;8.568;2022-09-17T07:26:33;19.80;96.80
14079;DHT22;7115;50.150;8.568;2022-09-17T07:29:00;19.70;96.50
14079;DHT22;7115;50.150;8.568;2022-09-17T07:31:27;19.40;96.10
14079;DHT22;7115;50.150;8.568;2022-09-17T07:33:53;19.10;96.60
14079;DHT22;7115;50.150;8.568;2022-09-17T07:36:20;19.30;96.70
14079;DHT22;7115;50.150;8.568;2022-09-17T07:38:47;19.80;96.40
14079;DHT22;7115;50.150;8.568;2022-09-17T07:41:16;20.50;95.90
14079;DHT22;7115;50.150;8.568;2022-09-17T07:43:43;21.20;95.10
14079;DHT22;7115;50.150;8.568;2022-09-17T07:46:14;21.80;94.20
14079;DHT22;7115;50.150;8.568;2022-09-17T07:48:41;22.40;93.10
14079;DHT22;7115;50.150;8.568;2022-09-17T07:51:14;22.60;92.30
14079;DHT22;7115;50.150;8.568;2022-09-17T07:53:41;22.40;91.60
14079;DHT22;7115;50.150;8.568;2022-09-17T07:56:08;22.40;91.40
14079;DHT22;7115;50.150;8.568;2022-09-17T07:58:37;22.20;91.00
14079;DHT22;7115;50.150;8.568;2022-09-17T08:01:08;21.80;90.90
14079;DHT22;7115;50.150;8.568;2022-09-17T08:03:35;21.20;90.90
14079;DHT22;7115;50.150;8.568;2022-09-17T08:06:11;20.60;91.20
14079;DHT22;7115;50.150;8.568;2022-09-17T08:08:38;20.00;91.60
14079;DHT22;7115;50.150;8.568;2022-09-17T08:11:13;19.50;92.00
14079;DHT22;7115;50.150;8.568;2022-09-17T08:13:58;18.90;92.50
14079;DHT22;7115;50.150;8.568;2022-09-17T08:16:25;18.30;92.90
14079;DHT22;7115;50.150;8.568;2022-09-17T08:18:56;17.80;93.50
14079;DHT22;7115;50.150;8.568;2022-09-17T08:21:23;17.50;94.00
14079;DHT22;7115;50.150;8.568;2022-09-17T08:23:50;17.20;94.40
14079;DHT22;7115;50.150;8.568;2022-09-17T08:26:21;17.00;94.70
14079;DHT22;7115;50.150;8.568;2022-09-17T08:28:52;17.00;94.90
14079;DHT22;7115;50.150;8.568;2022-09-17T08:31:24;17.10;95.00
14079;DHT22;7115;50.150;8.568;2022-09-17T08:33:52;17.30;94.90
14079;DHT22;7115;50.150;8.568;2022-09-17T08:36:19;17.60;94.70
14079;DHT22;7115;50.150;8.568;2022-09-17T08:38:52;18.10;94.40
14079;DHT22;7115;50.150;8.568;2022-09-17T08:46:48;18.30;93.60
14079;DHT22;7115;50.150;8.568;2022-09-17T08:49:39;18.40;93.60
14079;DHT22;7115;50.150;8.568;2022-09-17T08:55:29;19.70;92.60
14079;DHT22;7115;50.150;8.568;2022-09-17T09:06:05;22.00;90.00
14079;DHT22;7115;50.150;8.568;2022-09-17T09:08:59;21.80;89.00
14079;DHT22;7115;50.150;8.568;2022-09-17T09:11:30;21.40;88.80
14079;DHT22;7115;50.150;8.568;2022-09-17T09:14:03;20.90;89.60
14079;DHT22;7115;50.150;8.568;2022-09-17T09:16:33;20.50;90.00
14079;DHT22;7115;50.150;8.568;2022-09-17T09:19:20;20.60;90.10
14079;DHT22;7115;50.150;8.568;2022-09-17T09:22:03;20.70;89.90
14079;DHT22;7115;50.150;8.568;2022-09-17T09:33:15;21.50;87.40
14079;DHT22;7115;50.150;8.568;2022-09-17T09:35:43;21.50;87.00
14079;DHT22;7115;50.150;8.568;2022-09-17T09:38:16;21.20;87.10
14079;DHT22;7115;50.150;8.568;2022-09-17T09:40:54;20.70;87.80
14079;DHT22;7115;50.150;8.568;2022-09-17T09:57:31;18.20;91.20
14079;DHT22;7115;50.150;8.568;2022-09-17T10:05:34;17.80;91.60
14079;DHT22;7115;50.150;8.568;2022-09-17T10:08:13;17.60;91.80
14079;DHT22;7115;50.150;8.568;2022-09-17T10:13:30;17.10;92.00
14079;DHT22;7115;50.150;8.568;2022-09-17T10:18:42;16.70;92.40
14079;DHT22;7115;50.150;8.568;2022-09-17T10:21:29;16.60;92.50
14079;DHT22;7115;50.150;8.568;2022-09-17T10:23:57;16.50;92.70
14079;DHT22;7115;50.150;8.568;2022-09-17T10:26:32;16.50;92.80
14079;DHT22;7115;50.150;8.568;2022-09-17T10:29:15;16.40;92.90
14079;DHT22;7115;50.150;8.568;2022-09-17T10:31:48;16.30;93.10
14079;DHT22;7115;50.150;8.568;2022-09-17T10:34:30;16.30;93.10
14079;DHT22;7115;50.150;8.568;2022-09-17T10:36:57;16.20;93.20
14079;DHT22;7115;50.150;8.568;2022-09-17T10:39:36;16.20;93.30
14079;DHT22;7115;50.150;8.568;2022-09-17T10:42:14;16.30;93.40
14079;DHT22;7115;50.150;8.568;2022-09-17T10:44:56;16.30;93.30
14079;DHT22;7115;50.150;8.568;2022-09-17T10:47:30;16.40;93.50
14079;DHT22;7115;50.150;8.568;2022-09-17T10:50:14;16.60;93.80
14079;DHT22;7115;50.150;8.568;2022-09-17T10:52:48;16.70;93.40
14079;DHT22;7115;50.150;8.568;2022-09-17T10:55:37;16.90;93.30
14079;DHT22;7115;50.150;8.568;2022-09-17T11:11:52;19.00;92.20
14079;DHT22;7115;50.150;8.568;2022-09-17T11:20:04;19.80;91.20
14079;DHT22;7115;50.150;8.568;2022-09-17T11:28:15;20.10;90.10
14079;DHT22;7115;50.150;8.568;2022-09-17T11:37:18;19.50;89.20
14079;DHT22;7115;50.150;8.568;2022-09-17T11:39:48;19.00;90.10
14079;DHT22;7115;50.150;8.568;2022-09-17T11:42:27;18.50;90.50
14079;DHT22;7115;50.150;8.568;2022-09-17T11:45:02;18.00;90.90
14079;DHT22;7115;50.150;8.568;2022-09-17T11:50:03;17.50;91.80
14079;DHT22;7115;50.150;8.568;2022-09-17T11:52:43;17.70;92.40
14079;DHT22;7115;50.150;8.568;2022-09-17T11:57:55;19.20;92.30
14079;DHT22;7115;50.150;8.568;2022-09-17T12:00:27;20.00;91.80
14079;DHT22;7115;50.150;8.568;2022-09-17T12:03:12;20.80;91.00
14079;DHT22;7115;50.150;8.568;2022-09-17T12:05:54;21.60;90.10
14079;DHT22;7115;50.150;8.568;2022-09-17T12:11:17;22.90;85.90
14079;DHT22;7115;50.150;8.568;2022-09-17T12:16:47;23.80;82.70
14079;DHT22;7115;50.150;8.568;2022-09-17T12:19:39;24.20;80.80
14079;DHT22;7115;50.150;8.568;2022-09-17T12:22:34;24.50;80.20
14079;DHT22;7115;50.150;8.568;2022-09-17T12:25:11;24.80;78.80
14079;DHT22;7115;50.150;8.568;2022-09-17T12:28:08;24.90;77.70
14079;DHT22;7115;50.150;8.568;2022-09-17T12:30:45;24.90;76.10
14079;DHT22;7115;50.150;8.568;2022-09-17T12:33:55;24.70;75.60
14079;DHT22;7115;50.150;8.568;2022-09-17T12:36:36;24.30;74.50
14079;DHT22;7115;50.150;8.568;2022-09-17T12:39:13;24.00;74.70
14079;DHT22;7115;50.150;8.568;2022-09-17T12:45:20;23.60;74.20
14079;DHT22;7115;50.150;8.568;2022-09-17T12:50:58;22.60;74.20
14079;DHT22;7115;50.150;8.568;2022-09-17T12:53:30;22.30;75.50
14079;DHT22;7115;50.150;8.568;2022-09-17T12:59:07;22.20;75.70
14079;DHT22;7115;50.150;8.568;2022-09-17T13:01:47;22.00;75.20
14079;DHT22;7115;50.150;8.568;2022-09-17T13:10:19;21.80;75.40
14079;DHT22;7115;50.150;8.568;2022-09-17T13:15:44;21.50;74.50
14079;DHT22;7115;50.150;8.568;2022-09-17T13:20:59;21.30;74.20
14079;DHT22;7115;50.150;8.568;2022-09-17T13:25:59;21.30;73.30
14079;DHT22;7115;50.150;8.568;2022-09-17T13:28:51;21.10;73.30
14079;DHT22;7115;50.150;8.568;2022-09-17T13:34:03;20.90;73.40
14079;DHT22;7115;50.150;8.568;2022-09-17T13:36:47;20.70;73.70
14079;DHT22;7115;50.150;8.568;2022-09-17T13:42:19;20.40;74.40
14079;DHT22;7115;50.150;8.568;2022-09-17T13:44:50;20.40;74.50
14079;DHT22;7115;50.150;8.568;2022-09-17T13:47:24;20.30;74.60
14079;DHT22;7115;50.150;8.568;2022-09-17T13:50:03;20.30;74.60
14079;DHT22;7115;50.150;8.568;2022-09-17T13:52:49;20.40;74.50
14079;DHT22;7115;50.150;8.568;2022-09-17T13:58:12;20.10;74.70
14079;DHT22;7115;50.150;8.568;2022-09-17T14:40:34;17.50;84.50
14079;DHT22;7115;50.150;8.568;2022-09-17T14:43:02;17.40;85.50
14079;DHT22;7115;50.150;8.568;2022-09-17T14:45:36;17.40;86.80
14079;DHT22;7115;50.150;8.568;2022-09-17T14:48:26;17.40;88.00
14079;DHT22;7115;50.150;8.568;2022-09-17T14:54:12;17.70;89.20
14079;DHT22;7115;50.150;8.568;2022-09-17T15:04:56;18.50;88.70
14079;DHT22;7115;50.150;8.568;2022-09-17T15:07:24;18.70;88.40
14079;DHT22;7115;50.150;8.568;2022-09-17T15:09:52;18.70;88.20
14079;DHT22;7115;50.150;8.568;2022-09-17T15:12:25;18.70;88.20
14079;DHT22;7115;50.150;8.568;2022-09-17T15:14:54;18.70;88.20
14079;DHT22;7115;50.150;8.568;2022-09-17T15:17:22;18.70;88.30
14079;DHT22;7115;50.150;8.568;2022-09-17T15:19:51;18.70;88.30
14079;DHT22;7115;50.150;8.568;2022-09-17T15:22:27;18.60;88.10
14079;DHT22;7115;50.150;8.568;2022-09-17T15:30:15;18.50;88.70
14079;DHT22;7115;50.150;8.568;2022-09-17T15:35:32;18.50;88.80
14079;DHT22;7115;50.150;8.568;2022-09-17T15:38:26;18.60;89.00
14079;DHT22;7115;50.150;8.568;2022-09-17T15:40:53;18.70;88.70
14079;DHT22;7115;50.150;8.568;2022-09-17T15:43:26;18.60;88.40
14079;DHT22;7115;50.150;8.568;2022-09-17T15:45:54;18.50;88.10
14079;DHT22;7115;50.150;8.568;2022-09-17T15:50:56;18.00;88.50
14079;DHT22;7115;50.150;8.568;2022-09-17T15:53:26;17.50;89.00
14079;DHT22;7115;50.150;8.568;2022-09-17T16:08:51;16.10;91.30
14079;DHT22;7115;50.150;8.568;2022-09-17T16:11:21;16.10;91.60
14079;DHT22;7115;50.150;8.568;2022-09-17T16:13:49;16.00;91.80
14079;DHT22;7115;50.150;8.568;2022-09-17T16:18:50;16.10;92.30
14079;DHT22;7115;50.150;8.568;2022-09-17T16:21:18;16.10;92.40
14079;DHT22;7115;50.150;8.568;2022-09-17T16:23:45;16.10;92.60
14079;DHT22;7115;50.150;8.568;2022-09-17T16:26:18;16.10;92.70
14079;DHT22;7115;50.150;8.568;2022-09-17T16:28:46;16.10;92.90
14079;DHT22;7115;50.150;8.568;2022-09-17T16:31:14;16.10;93.00
14079;DHT22;7115;50.150;8.568;2022-09-17T16:33:41;16.00;93.10
14079;DHT22;7115;50.150;8.568;2022-09-17T16:36:07;15.80;93.30
14079;DHT22;7115;50.150;8.568;2022-09-17T16:38:35;15.60;93.50
14079;DHT22;7115;50.150;8.568;2022-09-17T16:41:04;15.60;93.60
14079;DHT22;7115;50.150;8.568;2022-09-17T16:43:31;15.50;93.60
14079;DHT22;7115;50.150;8.568;2022-09-17T16:46:00;15.50;93.80
14079;DHT22;7115;50.150;8.568;2022-09-17T16:48:27;15.50;93.70
14079;DHT22;7115;50.150;8.568;2022-09-17T16:50:53;15.50;93.90
14079;DHT22;7115;50.150;8.568;2022-09-17T16:53:20;15.50;93.80
14079;DHT22;7115;50.150;8.568;2022-09-17T16:55:47;15.40;93.90
14079;DHT22;7115;50.150;8.568;2022-09-17T16:58:14;15.40;94.00
14079;DHT22;7115;50.150;8.568;2022-09-17T17:00:41;15.30;94.00
14079;DHT22;7115;50.150;8.568;2022-09-17T17:03:11;15.30;94.10
14079;DHT22;7115;50.150;8.568;2022-09-17T17:05:39;15.20;94.20
14079;DHT22;7115;50.150;8.568;2022-09-17T17:08:06;15.10;94.40
14079;DHT22;7115;50.150;8.568;2022-09-17T17:10:36;15.00;94.70
14079;DHT22;7115;50.150;8.568;2022-09-17T17:13:04;15.00;94.90
14079;DHT22;7115;50.150;8.568;2022-09-17T17:15:31;14.80;94.90
14079;DHT22;7115;50.150;8.568;2022-09-17T17:17:58;14.70;95.10
14079;DHT22;7115;50.150;8.568;2022-09-17T17:20:24;14.50;95.10
14079;DHT22;7115;50.150;8.568;2022-09-17T17:22:51;14.40;95.30
14079;DHT22;7115;50.150;8.568;2022-09-17T17:25:18;14.40;95.40
14079;DHT22;7115;50.150;8.568;2022-09-17T17:27:45;14.40;95.50
14079;DHT22;7115;50.150;8.568;2022-09-17T17:30:12;14.30;95.60
14079;DHT22;7115;50.150;8.568;2022-09-17T17:32:43;14.30;95.70
14079;DHT22;7115;50.150;8.568;2022-09-17T17:35:10;14.30;95.80
14079;DHT22;7115;50.150;8.568;2022-09-17T17:37:37;14.20;95.90
14079;DHT22;7115;50.150;8.568;2022-09-17T17:40:04;14.10;96.00
14079;DHT22;7115;50.150;8.568;2022-09-17T17:42:40;14.10;96.10
14079;DHT22;7115;50.150;8.568;2022-09-17T17:45:09;14.10;96.30
14079;DHT22;7115;50.150;8.568;2022-09-17T17:47:36;14.10;96.40
14079;DHT22;7115;50.150;8.568;2022-09-17T17:50:03;14.00;96.50
14079;DHT22;7115;50.150;8.568;2022-09-17T17:52:30;14.00;96.50
14079;DHT22;7115;50.150;8.568;2022-09-17T17:54:57;13.90;96.60
14079;DHT22;7115;50.150;8.568;2022-09-17T17:57:24;13.80;96.70
14079;DHT22;7115;50.150;8.568;2022-09-17T17:59:50;13.60;96.80
14079;DHT22;7115;50.150;8.568;2022-09-17T18:02:17;13.50;96.90
14079;DHT22;7115;50.150;8.568;2022-09-17T18:04:44;13.50;97.00
14079;DHT22;7115;50.150;8.568;2022-09-17T18:07:10;13.40;97.00
14079;DHT22;7115;50.150;8.568;2022-09-17T18:09:37;13.30;97.10
14079;DHT22;7115;50.150;8.568;2022-09-17T18:12:04;13.20;97.10
14079;DHT22;7115;50.150;8.568;2022-09-17T18:14:31;13.10;97.20
14079;DHT22;7115;50.150;8.568;2022-09-17T18:16:58;13.00;97.30
14079;DHT22;7115;50.150;8.568;2022-09-17T18:19:25;13.00;97.50
14079;DHT22;7115;50.150;8.568;2022-09-17T18:21:53;13.00;97.60
14079;DHT22;7115;50.150;8.568;2022-09-17T18:24:20;12.90;97.70
14079;DHT22;7115;50.150;8.568;2022-09-17T18:26:46;12.90;97.80
14079;DHT22;7115;50.150;8.568;2022-09-17T18:29:13;12.80;97.80
14079;DHT22;7115;50.150;8.568;2022-09-17T18:31:40;12.80;98.00
14079;DHT22;7115;50.150;8.568;2022-09-17T18:34:11;12.80;98.10
14079;DHT22;7115;50.150;8.568;2022-09-17T18:36:38;12.70;98.20
14079;DHT22;7115;50.150;8.568;2022-09-17T18:39:07;12.70;98.30
14079;DHT22;7115;50.150;8.568;2022-09-17T18:41:55;12.60;98.40
14079;DHT22;7115;50.150;8.568;2022-09-17T18:44:22;12.60;98.50
14079;DHT22;7115;50.150;8.568;2022-09-17T18:46:48;12.60;98.70
14079;DHT22;7115;50.150;8.568;2022-09-17T18:49:17;12.60;98.80
14079;DHT22;7115;50.150;8.568;2022-09-17T18:51:43;12.50;98.90
14079;DHT22;7115;50.150;8.568;2022-09-17T18:54:10;12.50;99.40
14079;DHT22;7115;50.150;8.568;2022-09-17T18:56:40;12.50;99.20
14079;DHT22;7115;50.150;8.568;2022-09-17T18:59:08;12.50;99.30
14079;DHT22;7115;50.150;8.568;2022-09-17T19:01:35;12.50;99.30
14079;DHT22;7115;50.150;8.568;2022-09-17T19:04:02;12.50;99.40
14079;DHT22;7115;50.150;8.568;2022-09-17T19:06:30;12.50;99.50
14079;DHT22;7115;50.150;8.568;2022-09-17T19:09:00;12.50;99.60
14079;DHT22;7115;50.150;8.568;2022-09-17T19:11:27;12.50;99.60
14079;DHT22;7115;50.150;8.568;2022-09-17T19:14:08;12.50;99.70
14079;DHT22;7115;50.150;8.568;2022-09-17T19:16:36;12.50;99.70
14079;DHT22;7115;50.150;8.568;2022-09-17T19:19:02;12.50;99.80
14079;DHT22;7115;50.150;8.568;2022-09-17T19:21:29;12.50;99.90
14079;DHT22;7115;50.150;8.568;2022-09-17T19:23:56;12.50;99.90
14079;DHT22;7115;50.150;8.568;2022-09-17T19:26:25;12.60;99.90
14079;DHT22;7115;50.150;8.568;2022-09-17T19:28:54;12.60;99.90
14079;DHT22;7115;50.150;8.568;2022-09-17T19:31:21;12.60;99.90
14079;DHT22;7115;50.150;8.568;2022-09-17T19:33:48;12.60;99.90
14079;DHT22;7115;50.150;8.568;2022-09-17T19:36:17;12.60;99.90
14079;DHT22;7115;50.150;8.568;2022-09-17T19:38:44;12.50;99.90
14079;DHT22;7115;50.150;8.568;2022-09-17T19:41:14;12.50;99.90
14079;DHT22;7115;50.150;8.568;2022-09-17T19:43:41;12.50;99.90
14079;DHT22;7115;50.150;8.568;2022-09-17T19:46:14;12.40;99.90
14079;DHT22;7115;50.150;8.568;2022-09-17T19:48:45;12.30;99.90
14079;DHT22;7115;50.150;8.568;2022-09-17T19:51:12;12.30;99.90
14079;DHT22;7115;50.150;8.568;2022-09-17T19:53:40;12.20;99.90
14079;DHT22;7115;50.150;8.568;2022-09-17T19:56:09;12.20;99.90
14079;DHT22;7115;50.150;8.568;2022-09-17T19:58:37;12.10;99.90
14079;DHT22;7115;50.150;8.568;2022-09-17T20:01:04;12.10;99.90
14079;DHT22;7115;50.150;8.568;2022-09-17T20:03:31;12.00;99.90
14079;DHT22;7115;50.150;8.568;2022-09-17T20:06:03;12.00;99.90
14079;DHT22;7115;50.150;8.568;2022-09-17T20:08:30;12.00;99.90
14079;DHT22;7115;50.150;8.568;2022-09-17T20:11:06;11.90;99.90
14079;DHT22;7115;50.150;8.568;2022-09-17T20:13:34;11.80;99.90